sensor_id;sensor_type;location;lat;lon;timestamp;P1;durP1;ratioP1;P2;durP2;ratioP2
59880;SDS011;45751;51.380;10.326;2022-12-18T00:04:03;4.00;;;1.63;;
59880;SDS011;45751;51.380;10.326;2022-12-18T00:06:32;5.78;;;3.17;;
59880;SDS011;45751;51.380;10.326;2022-12-18T00:09:02;3.50;;;1.73;;
59880;SDS011;45751;51.380;10.326;2022-12-18T00:11:30;2.72;;;1.42;;
59880;SDS011;45751;51.380;10.326;2022-12-18T00:13:58;5.90;;;1.17;;
59880;SDS011;45751;51.380;10.326;2022-12-18T00:16:27;7.68;;;1.85;;
59880;SDS011;45751;51.380;10.326;2022-12-18T00:18:58;3.58;;;2.10;;
59880;SDS011;45751;51.380;10.326;2022-12-18T00:21:26;5.10;;;2.05;;
59880;SDS011;45751;51.380;10.326;2022-12-18T00:23:56;4.60;;;2.35;;
59880;SDS011;45751;51.380;10.326;2022-12-18T00:26:26;3.53;;;1.88;;
59880;SDS011;45751;51.380;10.326;2022-12-18T00:29:10;5.10;;;2.87;;
59880;SDS011;45751;51.380;10.326;2022-12-18T00:31:43;3.67;;;1.63;;
59880;SDS011;45751;51.380;10.326;2022-12-18T00:34:12;7.38;;;4.00;;
59880;SDS011;45751;51.380;10.326;2022-12-18T00:36:39;3.53;;;2.25;;
59880;SDS011;45751;51.380;10.326;2022-12-18T00:39:11;3.13;;;2.00;;
59880;SDS011;45751;51.380;10.326;2022-12-18T00:41:43;7.30;;;3.30;;
59880;SDS011;45751;51.380;10.326;2022-12-18T00:44:31;8.77;;;3.60;;
59880;SDS011;45751;51.380;10.326;2022-12-18T00:46:59;6.53;;;1.52;;
59880;SDS011;45751;51.380;10.326;2022-12-18T00:49:26;3.10;;;2.30;;
59880;SDS011;45751;51.380;10.326;2022-12-18T00:51:54;2.97;;;1.48;;
59880;SDS011;45751;51.380;10.326;2022-12-18T00:54:23;4.90;;;3.17;;
59880;SDS011;45751;51.380;10.326;2022-12-18T00:56:50;5.10;;;1.98;;
59880;SDS011;45751;51.380;10.326;2022-12-18T00:59:17;3.67;;;1.67;;
59880;SDS011;45751;51.380;10.326;2022-12-18T01:01:46;2.90;;;1.40;;
59880;SDS011;45751;51.380;10.326;2022-12-18T01:04:13;6.60;;;3.80;;
59880;SDS011;45751;51.380;10.326;2022-12-18T01:06:44;2.35;;;1.45;;
59880;SDS011;45751;51.380;10.326;2022-12-18T01:09:11;6.05;;;2.35;;
59880;SDS011;45751;51.380;10.326;2022-12-18T01:11:40;4.13;;;2.90;;
59880;SDS011;45751;51.380;10.326;2022-12-18T01:14:09;4.10;;;1.90;;
59880;SDS011;45751;51.380;10.326;2022-12-18T01:16:36;2.05;;;0.88;;
59880;SDS011;45751;51.380;10.326;2022-12-18T01:19:05;3.40;;;2.17;;
59880;SDS011;45751;51.380;10.326;2022-12-18T01:21:32;4.07;;;1.50;;
59880;SDS011;45751;51.380;10.326;2022-12-18T01:24:02;4.57;;;2.67;;
59880;SDS011;45751;51.380;10.326;2022-12-18T01:26:32;2.43;;;1.10;;
59880;SDS011;45751;51.380;10.326;2022-12-18T01:28:59;4.55;;;3.03;;
59880;SDS011;45751;51.380;10.326;2022-12-18T01:31:29;4.20;;;1.85;;
59880;SDS011;45751;51.380;10.326;2022-12-18T01:34:01;6.15;;;3.00;;
59880;SDS011;45751;51.380;10.326;2022-12-18T01:36:34;4.22;;;1.92;;
59880;SDS011;45751;51.380;10.326;2022-12-18T01:39:04;3.80;;;2.50;;
59880;SDS011;45751;51.380;10.326;2022-12-18T01:41:43;3.25;;;1.75;;
59880;SDS011;45751;51.380;10.326;2022-12-18T01:47:23;4.57;;;1.77;;
59880;SDS011;45751;51.380;10.326;2022-12-18T01:49:50;3.35;;;3.00;;
59880;SDS011;45751;51.380;10.326;2022-12-18T01:52:19;2.57;;;1.70;;
59880;SDS011;45751;51.380;10.326;2022-12-18T01:54:47;3.40;;;1.27;;
59880;SDS011;45751;51.380;10.326;2022-12-18T01:57:19;4.43;;;2.43;;
59880;SDS011;45751;51.380;10.326;2022-12-18T01:59:47;6.13;;;3.60;;
59880;SDS011;45751;51.380;10.326;2022-12-18T02:02:20;2.00;;;1.35;;
59880;SDS011;45751;51.380;10.326;2022-12-18T02:04:48;4.17;;;2.00;;
59880;SDS011;45751;51.380;10.326;2022-12-18T02:10:11;5.47;;;1.83;;
59880;SDS011;45751;51.380;10.326;2022-12-18T02:12:58;8.77;;;3.10;;
59880;SDS011;45751;51.380;10.326;2022-12-18T02:15:36;4.63;;;1.80;;
59880;SDS011;45751;51.380;10.326;2022-12-18T02:18:25;3.97;;;2.70;;
59880;SDS011;45751;51.380;10.326;2022-12-18T02:26:23;1.53;;;1.30;;
59880;SDS011;45751;51.380;10.326;2022-12-18T02:28:58;8.30;;;2.33;;
59880;SDS011;45751;51.380;10.326;2022-12-18T02:31:35;3.80;;;1.53;;
59880;SDS011;45751;51.380;10.326;2022-12-18T02:34:07;4.07;;;2.67;;
59880;SDS011;45751;51.380;10.326;2022-12-18T02:36:38;6.30;;;4.37;;
59880;SDS011;45751;51.380;10.326;2022-12-18T02:39:12;4.23;;;1.87;;
59880;SDS011;45751;51.380;10.326;2022-12-18T02:41:55;1.40;;;0.80;;
59880;SDS011;45751;51.380;10.326;2022-12-18T02:44:24;2.37;;;1.13;;
59880;SDS011;45751;51.380;10.326;2022-12-18T02:46:52;1.97;;;0.80;;
59880;SDS011;45751;51.380;10.326;2022-12-18T02:49:26;4.13;;;2.20;;
59880;SDS011;45751;51.380;10.326;2022-12-18T02:57:45;2.33;;;1.87;;
59880;SDS011;45751;51.380;10.326;2022-12-18T03:00:39;1.17;;;0.70;;
59880;SDS011;45751;51.380;10.326;2022-12-18T03:03:14;3.13;;;1.43;;
59880;SDS011;45751;51.380;10.326;2022-12-18T03:06:08;1.47;;;1.13;;
59880;SDS011;45751;51.380;10.326;2022-12-18T03:08:43;5.57;;;2.53;;
59880;SDS011;45751;51.380;10.326;2022-12-18T03:11:16;6.77;;;2.20;;
59880;SDS011;45751;51.380;10.326;2022-12-18T03:14:06;4.22;;;1.92;;
59880;SDS011;45751;51.380;10.326;2022-12-18T03:16:34;6.80;;;3.53;;
59880;SDS011;45751;51.380;10.326;2022-12-18T03:19:06;4.75;;;3.20;;
59880;SDS011;45751;51.380;10.326;2022-12-18T03:21:43;2.43;;;1.60;;
59880;SDS011;45751;51.380;10.326;2022-12-18T03:24:17;3.37;;;2.20;;
59880;SDS011;45751;51.380;10.326;2022-12-18T03:26:50;3.43;;;1.63;;
59880;SDS011;45751;51.380;10.326;2022-12-18T03:29:40;2.60;;;1.97;;
59880;SDS011;45751;51.380;10.326;2022-12-18T03:32:21;2.57;;;1.17;;
59880;SDS011;45751;51.380;10.326;2022-12-18T03:34:53;7.83;;;3.57;;
59880;SDS011;45751;51.380;10.326;2022-12-18T03:37:31;2.50;;;1.17;;
59880;SDS011;45751;51.380;10.326;2022-12-18T03:39:58;3.17;;;2.00;;
59880;SDS011;45751;51.380;10.326;2022-12-18T03:45:28;2.47;;;1.33;;
59880;SDS011;45751;51.380;10.326;2022-12-18T03:56:10;4.63;;;2.30;;
59880;SDS011;45751;51.380;10.326;2022-12-18T03:58:42;2.20;;;1.73;;
59880;SDS011;45751;51.380;10.326;2022-12-18T04:01:22;1.67;;;1.10;;
59880;SDS011;45751;51.380;10.326;2022-12-18T04:03:59;2.43;;;1.40;;
59880;SDS011;45751;51.380;10.326;2022-12-18T04:06:31;2.83;;;1.57;;
59880;SDS011;45751;51.380;10.326;2022-12-18T04:09:03;3.50;;;1.67;;
59880;SDS011;45751;51.380;10.326;2022-12-18T04:11:35;2.10;;;1.37;;
59880;SDS011;45751;51.380;10.326;2022-12-18T04:14:04;2.27;;;1.20;;
59880;SDS011;45751;51.380;10.326;2022-12-18T04:16:33;2.87;;;1.60;;
59880;SDS011;45751;51.380;10.326;2022-12-18T04:19:03;1.70;;;0.60;;
59880;SDS011;45751;51.380;10.326;2022-12-18T04:21:37;1.87;;;0.93;;
59880;SDS011;45751;51.380;10.326;2022-12-18T04:24:07;2.78;;;1.23;;
59880;SDS011;45751;51.380;10.326;2022-12-18T04:26:41;6.80;;;3.43;;
59880;SDS011;45751;51.380;10.326;2022-12-18T04:29:14;2.83;;;1.63;;
59880;SDS011;45751;51.380;10.326;2022-12-18T04:31:42;4.03;;;1.77;;
59880;SDS011;45751;51.380;10.326;2022-12-18T04:34:10;2.47;;;1.27;;
59880;SDS011;45751;51.380;10.326;2022-12-18T04:36:46;4.33;;;1.30;;
59880;SDS011;45751;51.380;10.326;2022-12-18T04:41:44;2.47;;;2.13;;
59880;SDS011;45751;51.380;10.326;2022-12-18T04:44:12;3.70;;;1.93;;
59880;SDS011;45751;51.380;10.326;2022-12-18T04:46:40;1.97;;;1.30;;
59880;SDS011;45751;51.380;10.326;2022-12-18T04:49:07;2.13;;;1.33;;
59880;SDS011;45751;51.380;10.326;2022-12-18T04:51:36;2.17;;;1.50;;
59880;SDS011;45751;51.380;10.326;2022-12-18T04:54:03;1.10;;;0.70;;
59880;SDS011;45751;51.380;10.326;2022-12-18T04:56:32;3.03;;;1.07;;
59880;SDS011;45751;51.380;10.326;2022-12-18T04:58:59;4.33;;;1.43;;
59880;SDS011;45751;51.380;10.326;2022-12-18T05:01:26;2.77;;;1.87;;
59880;SDS011;45751;51.380;10.326;2022-12-18T05:04:00;1.77;;;1.20;;
59880;SDS011;45751;51.380;10.326;2022-12-18T05:06:27;3.07;;;1.53;;
59880;SDS011;45751;51.380;10.326;2022-12-18T05:08:58;2.10;;;1.33;;
59880;SDS011;45751;51.380;10.326;2022-12-18T05:11:25;2.17;;;0.80;;
59880;SDS011;45751;51.380;10.326;2022-12-18T05:13:52;3.43;;;1.80;;
59880;SDS011;45751;51.380;10.326;2022-12-18T05:16:21;3.80;;;1.50;;
59880;SDS011;45751;51.380;10.326;2022-12-18T05:18:49;3.17;;;1.20;;
59880;SDS011;45751;51.380;10.326;2022-12-18T05:21:16;2.03;;;1.13;;
59880;SDS011;45751;51.380;10.326;2022-12-18T05:23:45;3.10;;;1.90;;
59880;SDS011;45751;51.380;10.326;2022-12-18T05:26:15;1.60;;;0.93;;
59880;SDS011;45751;51.380;10.326;2022-12-18T05:28:43;7.57;;;3.17;;
59880;SDS011;45751;51.380;10.326;2022-12-18T05:31:14;2.10;;;1.20;;
59880;SDS011;45751;51.380;10.326;2022-12-18T05:33:40;7.93;;;1.53;;
59880;SDS011;45751;51.380;10.326;2022-12-18T05:36:09;8.13;;;2.23;;
59880;SDS011;45751;51.380;10.326;2022-12-18T05:38:40;2.85;;;1.17;;
59880;SDS011;45751;51.380;10.326;2022-12-18T05:41:09;2.95;;;1.65;;
59880;SDS011;45751;51.380;10.326;2022-12-18T05:43:36;3.83;;;2.40;;
59880;SDS011;45751;51.380;10.326;2022-12-18T05:46:06;3.40;;;1.85;;
59880;SDS011;45751;51.380;10.326;2022-12-18T05:48:34;1.97;;;0.80;;
59880;SDS011;45751;51.380;10.326;2022-12-18T05:51:03;2.10;;;0.90;;
59880;SDS011;45751;51.380;10.326;2022-12-18T05:53:37;1.43;;;1.20;;
59880;SDS011;45751;51.380;10.326;2022-12-18T05:56:05;2.10;;;1.23;;
59880;SDS011;45751;51.380;10.326;2022-12-18T05:58:35;1.50;;;1.35;;
59880;SDS011;45751;51.380;10.326;2022-12-18T06:01:11;4.13;;;2.50;;
59880;SDS011;45751;51.380;10.326;2022-12-18T06:03:51;1.20;;;0.67;;
59880;SDS011;45751;51.380;10.326;2022-12-18T06:06:20;2.23;;;2.03;;
59880;SDS011;45751;51.380;10.326;2022-12-18T06:08:58;2.83;;;1.97;;
59880;SDS011;45751;51.380;10.326;2022-12-18T06:11:25;2.50;;;1.23;;
59880;SDS011;45751;51.380;10.326;2022-12-18T06:13:53;2.10;;;1.20;;
59880;SDS011;45751;51.380;10.326;2022-12-18T06:16:24;4.27;;;3.70;;
59880;SDS011;45751;51.380;10.326;2022-12-18T06:18:58;2.15;;;1.60;;
59880;SDS011;45751;51.380;10.326;2022-12-18T06:21:28;2.60;;;1.07;;
59880;SDS011;45751;51.380;10.326;2022-12-18T06:23:59;1.13;;;0.70;;
59880;SDS011;45751;51.380;10.326;2022-12-18T06:26:26;1.77;;;0.87;;
59880;SDS011;45751;51.380;10.326;2022-12-18T06:28:54;1.00;;;0.50;;
59880;SDS011;45751;51.380;10.326;2022-12-18T06:31:22;4.83;;;2.60;;
59880;SDS011;45751;51.380;10.326;2022-12-18T06:33:49;2.23;;;1.03;;
59880;SDS011;45751;51.380;10.326;2022-12-18T06:36:16;2.33;;;1.50;;
59880;SDS011;45751;51.380;10.326;2022-12-18T06:38:45;2.60;;;0.97;;
59880;SDS011;45751;51.380;10.326;2022-12-18T06:41:17;2.20;;;1.43;;
59880;SDS011;45751;51.380;10.326;2022-12-18T06:43:47;4.20;;;2.53;;
59880;SDS011;45751;51.380;10.326;2022-12-18T06:46:14;4.20;;;2.40;;
59880;SDS011;45751;51.380;10.326;2022-12-18T06:48:42;4.40;;;2.67;;
59880;SDS011;45751;51.380;10.326;2022-12-18T06:51:12;5.82;;;2.15;;
59880;SDS011;45751;51.380;10.326;2022-12-18T06:53:47;2.63;;;1.90;;
59880;SDS011;45751;51.380;10.326;2022-12-18T06:56:16;1.00;;;0.55;;
59880;SDS011;45751;51.380;10.326;2022-12-18T06:58:43;2.60;;;1.50;;
59880;SDS011;45751;51.380;10.326;2022-12-18T07:01:12;7.80;;;2.33;;
59880;SDS011;45751;51.380;10.326;2022-12-18T07:03:41;1.00;;;0.70;;
59880;SDS011;45751;51.380;10.326;2022-12-18T07:06:13;3.03;;;1.60;;
59880;SDS011;45751;51.380;10.326;2022-12-18T07:08:44;1.70;;;0.90;;
59880;SDS011;45751;51.380;10.326;2022-12-18T07:11:12;2.97;;;1.60;;
59880;SDS011;45751;51.380;10.326;2022-12-18T07:13:39;2.27;;;1.70;;
59880;SDS011;45751;51.380;10.326;2022-12-18T07:16:09;2.03;;;1.33;;
59880;SDS011;45751;51.380;10.326;2022-12-18T07:18:47;6.40;;;2.13;;
59880;SDS011;45751;51.380;10.326;2022-12-18T07:21:15;1.37;;;0.63;;
59880;SDS011;45751;51.380;10.326;2022-12-18T07:23:47;5.33;;;1.57;;
59880;SDS011;45751;51.380;10.326;2022-12-18T07:26:15;1.33;;;0.83;;
59880;SDS011;45751;51.380;10.326;2022-12-18T07:28:43;5.83;;;3.30;;
59880;SDS011;45751;51.380;10.326;2022-12-18T07:31:17;3.80;;;2.80;;
59880;SDS011;45751;51.380;10.326;2022-12-18T07:33:47;2.33;;;1.53;;
59880;SDS011;45751;51.380;10.326;2022-12-18T07:36:16;5.17;;;1.63;;
59880;SDS011;45751;51.380;10.326;2022-12-18T07:38:46;2.73;;;1.40;;
59880;SDS011;45751;51.380;10.326;2022-12-18T07:41:16;2.20;;;1.80;;
59880;SDS011;45751;51.380;10.326;2022-12-18T07:43:43;1.90;;;1.20;;
59880;SDS011;45751;51.380;10.326;2022-12-18T07:46:10;4.70;;;1.60;;
59880;SDS011;45751;51.380;10.326;2022-12-18T07:48:40;9.50;;;4.07;;
59880;SDS011;45751;51.380;10.326;2022-12-18T07:51:11;1.65;;;0.85;;
59880;SDS011;45751;51.380;10.326;2022-12-18T07:53:41;1.73;;;1.33;;
59880;SDS011;45751;51.380;10.326;2022-12-18T07:56:10;1.77;;;0.77;;
59880;SDS011;45751;51.380;10.326;2022-12-18T07:58:56;1.87;;;0.97;;
59880;SDS011;45751;51.380;10.326;2022-12-18T08:01:27;5.07;;;2.90;;
59880;SDS011;45751;51.380;10.326;2022-12-18T08:03:54;13.63;;;2.30;;
59880;SDS011;45751;51.380;10.326;2022-12-18T08:06:21;6.17;;;3.37;;
59880;SDS011;45751;51.380;10.326;2022-12-18T08:08:52;3.67;;;2.20;;
59880;SDS011;45751;51.380;10.326;2022-12-18T08:11:20;4.55;;;2.33;;
59880;SDS011;45751;51.380;10.326;2022-12-18T08:13:48;2.47;;;2.07;;
59880;SDS011;45751;51.380;10.326;2022-12-18T08:16:16;3.17;;;2.20;;
59880;SDS011;45751;51.380;10.326;2022-12-18T08:18:45;3.57;;;2.70;;
59880;SDS011;45751;51.380;10.326;2022-12-18T08:21:13;6.87;;;3.27;;
59880;SDS011;45751;51.380;10.326;2022-12-18T08:23:49;2.67;;;1.43;;
59880;SDS011;45751;51.380;10.326;2022-12-18T08:26:17;3.33;;;2.67;;
59880;SDS011;45751;51.380;10.326;2022-12-18T08:28:46;6.23;;;2.37;;
59880;SDS011;45751;51.380;10.326;2022-12-18T08:31:18;2.40;;;2.00;;
59880;SDS011;45751;51.380;10.326;2022-12-18T08:33:48;4.23;;;2.27;;
59880;SDS011;45751;51.380;10.326;2022-12-18T08:36:16;8.50;;;4.23;;
59880;SDS011;45751;51.380;10.326;2022-12-18T08:38:45;2.70;;;1.40;;
59880;SDS011;45751;51.380;10.326;2022-12-18T08:41:13;6.00;;;1.83;;
59880;SDS011;45751;51.380;10.326;2022-12-18T08:46:34;1.60;;;1.17;;
59880;SDS011;45751;51.380;10.326;2022-12-18T08:49:06;4.77;;;2.03;;
59880;SDS011;45751;51.380;10.326;2022-12-18T08:51:34;1.67;;;1.00;;
59880;SDS011;45751;51.380;10.326;2022-12-18T08:54:03;2.83;;;1.10;;
59880;SDS011;45751;51.380;10.326;2022-12-18T08:56:33;3.20;;;2.20;;
59880;SDS011;45751;51.380;10.326;2022-12-18T08:59:01;3.23;;;1.90;;
59880;SDS011;45751;51.380;10.326;2022-12-18T09:01:30;3.53;;;2.13;;
59880;SDS011;45751;51.380;10.326;2022-12-18T09:03:58;4.57;;;2.30;;
59880;SDS011;45751;51.380;10.326;2022-12-18T09:06:27;9.43;;;4.57;;
59880;SDS011;45751;51.380;10.326;2022-12-18T09:08:54;3.77;;;2.07;;
59880;SDS011;45751;51.380;10.326;2022-12-18T09:11:23;5.00;;;2.63;;
59880;SDS011;45751;51.380;10.326;2022-12-18T09:13:54;6.13;;;2.33;;
59880;SDS011;45751;51.380;10.326;2022-12-18T09:16:22;4.70;;;1.70;;
59880;SDS011;45751;51.380;10.326;2022-12-18T09:18:58;3.17;;;1.33;;
59880;SDS011;45751;51.380;10.326;2022-12-18T09:21:27;5.23;;;2.60;;
59880;SDS011;45751;51.380;10.326;2022-12-18T09:24:04;2.37;;;1.50;;
59880;SDS011;45751;51.380;10.326;2022-12-18T09:26:35;3.83;;;2.07;;
59880;SDS011;45751;51.380;10.326;2022-12-18T09:29:03;6.57;;;2.97;;
59880;SDS011;45751;51.380;10.326;2022-12-18T09:31:30;6.00;;;4.30;;
59880;SDS011;45751;51.380;10.326;2022-12-18T09:33:57;9.97;;;2.00;;
59880;SDS011;45751;51.380;10.326;2022-12-18T09:36:25;5.43;;;3.27;;
59880;SDS011;45751;51.380;10.326;2022-12-18T09:38:52;3.17;;;1.80;;
59880;SDS011;45751;51.380;10.326;2022-12-18T09:46:38;2.33;;;1.20;;
59880;SDS011;45751;51.380;10.326;2022-12-18T09:49:13;2.93;;;1.93;;
59880;SDS011;45751;51.380;10.326;2022-12-18T09:51:56;5.10;;;2.60;;
59880;SDS011;45751;51.380;10.326;2022-12-18T09:54:35;4.73;;;1.73;;
59880;SDS011;45751;51.380;10.326;2022-12-18T09:57:13;7.15;;;3.58;;
59880;SDS011;45751;51.380;10.326;2022-12-18T09:59:44;4.77;;;2.03;;
59880;SDS011;45751;51.380;10.326;2022-12-18T10:02:20;5.03;;;3.27;;
59880;SDS011;45751;51.380;10.326;2022-12-18T10:05:07;4.40;;;2.30;;
59880;SDS011;45751;51.380;10.326;2022-12-18T10:07:58;4.37;;;1.93;;
59880;SDS011;45751;51.380;10.326;2022-12-18T10:10:48;5.37;;;3.80;;
59880;SDS011;45751;51.380;10.326;2022-12-18T10:13:27;5.20;;;2.70;;
59880;SDS011;45751;51.380;10.326;2022-12-18T10:16:15;7.00;;;3.33;;
59880;SDS011;45751;51.380;10.326;2022-12-18T10:21:32;3.97;;;2.40;;
59880;SDS011;45751;51.380;10.326;2022-12-18T10:26:48;6.77;;;4.33;;
59880;SDS011;45751;51.380;10.326;2022-12-18T10:29:16;4.43;;;3.05;;
59880;SDS011;45751;51.380;10.326;2022-12-18T10:31:44;4.80;;;2.28;;
59880;SDS011;45751;51.380;10.326;2022-12-18T10:34:12;5.28;;;2.67;;
59880;SDS011;45751;51.380;10.326;2022-12-18T10:36:43;4.57;;;2.35;;
59880;SDS011;45751;51.380;10.326;2022-12-18T10:39:14;3.45;;;1.45;;
59880;SDS011;45751;51.380;10.326;2022-12-18T10:41:42;7.20;;;2.35;;
59880;SDS011;45751;51.380;10.326;2022-12-18T10:44:17;5.43;;;3.28;;
59880;SDS011;45751;51.380;10.326;2022-12-18T10:46:48;7.10;;;3.40;;
59880;SDS011;45751;51.380;10.326;2022-12-18T10:49:24;5.63;;;3.90;;
59880;SDS011;45751;51.380;10.326;2022-12-18T10:54:49;6.72;;;4.63;;
59880;SDS011;45751;51.380;10.326;2022-12-18T10:57:33;4.28;;;2.00;;
59880;SDS011;45751;51.380;10.326;2022-12-18T11:02:56;2.88;;;1.20;;
59880;SDS011;45751;51.380;10.326;2022-12-18T11:05:34;4.85;;;2.38;;
59880;SDS011;45751;51.380;10.326;2022-12-18T11:08:04;7.88;;;5.40;;
59880;SDS011;45751;51.380;10.326;2022-12-18T11:10:38;5.63;;;2.70;;
59880;SDS011;45751;51.380;10.326;2022-12-18T11:13:18;7.47;;;4.43;;
59880;SDS011;45751;51.380;10.326;2022-12-18T11:15:48;6.45;;;3.53;;
59880;SDS011;45751;51.380;10.326;2022-12-18T11:18:22;7.78;;;4.53;;
59880;SDS011;45751;51.380;10.326;2022-12-18T11:21:06;5.47;;;3.67;;
59880;SDS011;45751;51.380;10.326;2022-12-18T11:23:51;16.38;;;7.18;;
59880;SDS011;45751;51.380;10.326;2022-12-18T11:26:19;8.40;;;4.25;;
59880;SDS011;45751;51.380;10.326;2022-12-18T11:31:23;6.53;;;1.85;;
59880;SDS011;45751;51.380;10.326;2022-12-18T11:33:56;10.48;;;4.15;;
59880;SDS011;45751;51.380;10.326;2022-12-18T11:36:45;9.57;;;3.97;;
59880;SDS011;45751;51.380;10.326;2022-12-18T11:39:20;9.13;;;3.78;;
59880;SDS011;45751;51.380;10.326;2022-12-18T11:42:24;4.05;;;2.70;;
59880;SDS011;45751;51.380;10.326;2022-12-18T11:47:49;5.07;;;3.25;;
59880;SDS011;45751;51.380;10.326;2022-12-18T11:50:24;6.22;;;4.47;;
59880;SDS011;45751;51.380;10.326;2022-12-18T11:52:53;8.18;;;4.47;;
59880;SDS011;45751;51.380;10.326;2022-12-18T11:59:14;9.35;;;3.75;;
59880;SDS011;45751;51.380;10.326;2022-12-18T12:15:34;1.95;;;0.90;;
59880;SDS011;45751;51.380;10.326;2022-12-18T12:18:29;7.35;;;5.55;;
59880;SDS011;45751;51.380;10.326;2022-12-18T12:21:28;12.90;;;5.88;;
59880;SDS011;45751;51.380;10.326;2022-12-18T12:29:42;10.18;;;5.22;;
59880;SDS011;45751;51.380;10.326;2022-12-18T12:40:30;14.63;;;4.57;;
59880;SDS011;45751;51.380;10.326;2022-12-18T12:46:16;14.43;;;6.88;;
59880;SDS011;45751;51.380;10.326;2022-12-18T12:48:48;23.80;;;12.07;;
59880;SDS011;45751;51.380;10.326;2022-12-18T12:53:48;16.37;;;8.10;;
59880;SDS011;45751;51.380;10.326;2022-12-18T12:56:16;23.58;;;6.95;;
59880;SDS011;45751;51.380;10.326;2022-12-18T13:07:39;6.22;;;3.83;;
59880;SDS011;45751;51.380;10.326;2022-12-18T13:15:33;8.20;;;4.22;;
59880;SDS011;45751;51.380;10.326;2022-12-18T13:18:10;10.52;;;3.80;;
59880;SDS011;45751;51.380;10.326;2022-12-18T13:20:50;10.05;;;4.65;;
59880;SDS011;45751;51.380;10.326;2022-12-18T13:23:38;11.55;;;3.85;;
59880;SDS011;45751;51.380;10.326;2022-12-18T13:45:48;13.73;;;6.15;;
59880;SDS011;45751;51.380;10.326;2022-12-18T13:48:29;9.20;;;2.08;;
59880;SDS011;45751;51.380;10.326;2022-12-18T13:51:09;7.78;;;3.30;;
59880;SDS011;45751;51.380;10.326;2022-12-18T13:53:44;12.65;;;5.55;;
59880;SDS011;45751;51.380;10.326;2022-12-18T13:56:17;6.97;;;3.70;;
59880;SDS011;45751;51.380;10.326;2022-12-18T14:01:45;10.10;;;5.72;;
59880;SDS011;45751;51.380;10.326;2022-12-18T14:04:21;8.43;;;4.65;;
59880;SDS011;45751;51.380;10.326;2022-12-18T14:07:06;8.35;;;4.97;;
59880;SDS011;45751;51.380;10.326;2022-12-18T14:09:41;10.38;;;4.90;;
59880;SDS011;45751;51.380;10.326;2022-12-18T14:12:19;9.10;;;3.58;;
59880;SDS011;45751;51.380;10.326;2022-12-18T14:15:31;7.68;;;3.78;;
59880;SDS011;45751;51.380;10.326;2022-12-18T14:18:03;5.45;;;3.83;;
59880;SDS011;45751;51.380;10.326;2022-12-18T14:20:57;12.75;;;5.30;;
59880;SDS011;45751;51.380;10.326;2022-12-18T14:23:28;10.80;;;4.43;;
59880;SDS011;45751;51.380;10.326;2022-12-18T14:28:57;11.82;;;5.68;;
59880;SDS011;45751;51.380;10.326;2022-12-18T14:31:28;8.88;;;4.85;;
59880;SDS011;45751;51.380;10.326;2022-12-18T14:33:58;5.80;;;3.20;;
59880;SDS011;45751;51.380;10.326;2022-12-18T14:36:28;17.80;;;6.38;;
59880;SDS011;45751;51.380;10.326;2022-12-18T14:38:56;9.63;;;5.25;;
59880;SDS011;45751;51.380;10.326;2022-12-18T14:41:27;11.85;;;5.50;;
59880;SDS011;45751;51.380;10.326;2022-12-18T14:43:54;13.27;;;6.85;;
59880;SDS011;45751;51.380;10.326;2022-12-18T14:46:36;9.70;;;4.45;;
59880;SDS011;45751;51.380;10.326;2022-12-18T14:49:18;10.82;;;5.32;;
59880;SDS011;45751;51.380;10.326;2022-12-18T14:51:55;6.13;;;3.33;;
59880;SDS011;45751;51.380;10.326;2022-12-18T14:54:27;7.80;;;5.22;;
59880;SDS011;45751;51.380;10.326;2022-12-18T14:57:02;8.60;;;3.45;;
59880;SDS011;45751;51.380;10.326;2022-12-18T14:59:31;6.80;;;3.08;;
59880;SDS011;45751;51.380;10.326;2022-12-18T15:02:03;10.10;;;6.60;;
59880;SDS011;45751;51.380;10.326;2022-12-18T15:04:41;6.45;;;3.72;;
59880;SDS011;45751;51.380;10.326;2022-12-18T15:09:44;8.10;;;5.15;;
59880;SDS011;45751;51.380;10.326;2022-12-18T15:20:48;9.98;;;5.88;;
59880;SDS011;45751;51.380;10.326;2022-12-18T15:23:23;7.88;;;5.70;;
59880;SDS011;45751;51.380;10.326;2022-12-18T15:25:58;16.85;;;5.38;;
59880;SDS011;45751;51.380;10.326;2022-12-18T15:28:35;4.93;;;2.58;;
59880;SDS011;45751;51.380;10.326;2022-12-18T15:36:21;8.75;;;4.18;;
59880;SDS011;45751;51.380;10.326;2022-12-18T15:38:54;10.00;;;3.75;;
59880;SDS011;45751;51.380;10.326;2022-12-18T15:41:32;10.40;;;4.95;;
59880;SDS011;45751;51.380;10.326;2022-12-18T15:44:03;10.07;;;5.00;;
59880;SDS011;45751;51.380;10.326;2022-12-18T15:46:48;12.13;;;3.40;;
59880;SDS011;45751;51.380;10.326;2022-12-18T15:49:16;9.10;;;6.82;;
59880;SDS011;45751;51.380;10.326;2022-12-18T15:51:43;10.80;;;5.82;;
59880;SDS011;45751;51.380;10.326;2022-12-18T15:54:15;6.57;;;3.67;;
59880;SDS011;45751;51.380;10.326;2022-12-18T15:56:42;7.15;;;2.58;;
59880;SDS011;45751;51.380;10.326;2022-12-18T15:59:31;13.23;;;5.07;;
59880;SDS011;45751;51.380;10.326;2022-12-18T16:01:58;12.30;;;5.35;;
59880;SDS011;45751;51.380;10.326;2022-12-18T16:04:25;9.23;;;5.45;;
59880;SDS011;45751;51.380;10.326;2022-12-18T16:06:54;8.95;;;6.05;;
59880;SDS011;45751;51.380;10.326;2022-12-18T16:09:39;7.90;;;4.45;;
59880;SDS011;45751;51.380;10.326;2022-12-18T16:12:09;6.30;;;4.57;;
59880;SDS011;45751;51.380;10.326;2022-12-18T16:14:45;10.82;;;5.43;;
59880;SDS011;45751;51.380;10.326;2022-12-18T16:17:14;8.43;;;3.78;;
59880;SDS011;45751;51.380;10.326;2022-12-18T16:19:43;7.90;;;3.83;;
59880;SDS011;45751;51.380;10.326;2022-12-18T16:24:49;6.90;;;3.90;;
59880;SDS011;45751;51.380;10.326;2022-12-18T16:27:17;11.02;;;3.50;;
59880;SDS011;45751;51.380;10.326;2022-12-18T16:29:47;19.13;;;9.00;;
59880;SDS011;45751;51.380;10.326;2022-12-18T16:32:16;16.38;;;9.48;;
59880;SDS011;45751;51.380;10.326;2022-12-18T16:34:44;7.78;;;5.05;;
59880;SDS011;45751;51.380;10.326;2022-12-18T16:37:14;9.43;;;4.70;;
59880;SDS011;45751;51.380;10.326;2022-12-18T16:39:42;14.93;;;7.28;;
59880;SDS011;45751;51.380;10.326;2022-12-18T16:42:13;7.13;;;4.72;;
59880;SDS011;45751;51.380;10.326;2022-12-18T16:44:48;10.02;;;3.40;;
59880;SDS011;45751;51.380;10.326;2022-12-18T16:47:16;8.52;;;4.05;;
59880;SDS011;45751;51.380;10.326;2022-12-18T16:49:44;4.07;;;1.95;;
59880;SDS011;45751;51.380;10.326;2022-12-18T16:52:12;7.72;;;3.88;;
59880;SDS011;45751;51.380;10.326;2022-12-18T16:54:39;13.15;;;5.18;;
59880;SDS011;45751;51.380;10.326;2022-12-18T16:57:06;8.23;;;4.47;;
59880;SDS011;45751;51.380;10.326;2022-12-18T16:59:38;6.93;;;4.65;;
59880;SDS011;45751;51.380;10.326;2022-12-18T17:02:08;13.57;;;5.65;;
59880;SDS011;45751;51.380;10.326;2022-12-18T17:05:05;6.90;;;3.80;;
59880;SDS011;45751;51.380;10.326;2022-12-18T17:07:32;11.32;;;5.18;;
59880;SDS011;45751;51.380;10.326;2022-12-18T17:10:02;14.98;;;5.00;;
59880;SDS011;45751;51.380;10.326;2022-12-18T17:12:30;9.00;;;3.28;;
59880;SDS011;45751;51.380;10.326;2022-12-18T17:14:56;5.75;;;3.40;;
59880;SDS011;45751;51.380;10.326;2022-12-18T17:17:26;12.60;;;6.50;;
59880;SDS011;45751;51.380;10.326;2022-12-18T17:19:53;19.83;;;6.95;;
59880;SDS011;45751;51.380;10.326;2022-12-18T17:22:20;8.80;;;4.55;;
59880;SDS011;45751;51.380;10.326;2022-12-18T17:24:49;4.97;;;2.65;;
59880;SDS011;45751;51.380;10.326;2022-12-18T17:27:16;14.43;;;6.18;;
59880;SDS011;45751;51.380;10.326;2022-12-18T17:29:45;8.73;;;3.80;;
59880;SDS011;45751;51.380;10.326;2022-12-18T17:32:14;6.70;;;2.80;;
59880;SDS011;45751;51.380;10.326;2022-12-18T17:34:42;9.48;;;3.17;;
59880;SDS011;45751;51.380;10.326;2022-12-18T17:37:09;7.85;;;4.57;;